sensor_id;sensor_type;location;lat;lon;timestamp;pressure;altitude;pressure_sealevel;temperature;humidity
25232;BME280;13176;51.140;6.290;2023-02-05T00:01:08;102836.97;;;9.68;84.71
25232;BME280;13176;51.140;6.290;2023-02-05T00:03:34;102917.47;;;10.23;84.49
25232;BME280;13176;51.140;6.290;2023-02-05T00:06:02;102965.56;;;10.71;84.27
25232;BME280;13176;51.140;6.290;2023-02-05T00:08:28;102879.31;;;10.28;84.13
25232;BME280;13176;51.140;6.290;2023-02-05T00:10:56;102882.19;;;10.40;83.99
25232;BME280;13176;51.140;6.290;2023-02-05T00:13:22;102968.16;;;10.71;84.06
25232;BME280;13176;51.140;6.290;2023-02-05T00:15:49;102935.06;;;10.70;84.36
25232;BME280;13176;51.140;6.290;2023-02-05T00:18:15;102824.97;;;10.10;83.99
25232;BME280;13176;51.140;6.290;2023-02-05T00:20:41;102885.03;;;10.49;83.97
25232;BME280;13176;51.140;6.290;2023-02-05T00:23:08;102939.50;;;10.74;84.02
25232;BME280;13176;51.140;6.290;2023-02-05T00:25:34;102949.31;;;10.84;83.57
25232;BME280;13176;51.140;6.290;2023-02-05T00:28:01;102939.50;;;10.74;83.68
25232;BME280;13176;51.140;6.290;2023-02-05T00:30:27;102925.53;;;10.72;83.78
25232;BME280;13176;51.140;6.290;2023-02-05T00:32:54;102944.03;;;10.83;83.81
25232;BME280;13176;51.140;6.290;2023-02-05T00:35:20;102919.38;;;10.69;83.88
25232;BME280;13176;51.140;6.290;2023-02-05T00:37:46;102887.72;;;10.54;83.71
25232;BME280;13176;51.140;6.290;2023-02-05T00:40:13;102938.03;;;10.85;83.86
25232;BME280;13176;51.140;6.290;2023-02-05T00:42:39;102932.03;;;10.91;83.48
25232;BME280;13176;51.140;6.290;2023-02-05T00:45:06;102896.56;;;10.60;83.69
25232;BME280;13176;51.140;6.290;2023-02-05T00:47:32;102864.00;;;10.43;83.76
25232;BME280;13176;51.140;6.290;2023-02-05T00:49:59;102931.69;;;10.74;83.69
25232;BME280;13176;51.140;6.290;2023-02-05T00:52:25;102860.97;;;10.25;84.24
25232;BME280;13176;51.140;6.290;2023-02-05T00:54:52;102931.53;;;10.68;84.38
25232;BME280;13176;51.140;6.290;2023-02-05T00:57:18;102906.00;;;10.54;84.75
25232;BME280;13176;51.140;6.290;2023-02-05T00:59:50;102923.50;;;10.59;84.57
25232;BME280;13176;51.140;6.290;2023-02-05T01:02:18;102901.63;;;10.53;84.61
25232;BME280;13176;51.140;6.290;2023-02-05T01:04:50;102925.47;;;10.69;84.69
25232;BME280;13176;51.140;6.290;2023-02-05T01:07:17;102898.06;;;10.49;85.26
25232;BME280;13176;51.140;6.290;2023-02-05T01:09:44;102863.94;;;10.40;84.97
25232;BME280;13176;51.140;6.290;2023-02-05T01:12:11;102862.09;;;10.35;85.36
25232;BME280;13176;51.140;6.290;2023-02-05T01:14:40;102803.78;;;9.98;85.58
25232;BME280;13176;51.140;6.290;2023-02-05T01:17:06;102875.25;;;10.41;85.64
25232;BME280;13176;51.140;6.290;2023-02-05T01:19:33;102863.47;;;10.20;87.27
25232;BME280;13176;51.140;6.290;2023-02-05T01:22:00;102891.50;;;10.28;87.31
25232;BME280;13176;51.140;6.290;2023-02-05T01:24:26;102867.09;;;10.27;87.11
25232;BME280;13176;51.140;6.290;2023-02-05T01:26:53;102902.09;;;10.35;88.11
25232;BME280;13176;51.140;6.290;2023-02-05T01:29:21;102854.72;;;10.18;87.97
25232;BME280;13176;51.140;6.290;2023-02-05T01:31:48;102854.13;;;10.30;87.67
25232;BME280;13176;51.140;6.290;2023-02-05T01:34:14;102873.53;;;10.41;87.91
25232;BME280;13176;51.140;6.290;2023-02-05T01:36:41;102820.69;;;10.13;87.58
25232;BME280;13176;51.140;6.290;2023-02-05T01:39:07;102761.84;;;9.89;87.48
25232;BME280;13176;51.140;6.290;2023-02-05T01:41:34;102789.91;;;9.99;87.41
25232;BME280;13176;51.140;6.290;2023-02-05T01:44:11;102897.66;;;10.71;87.77
25232;BME280;13176;51.140;6.290;2023-02-05T01:46:42;102852.00;;;10.51;87.65
25232;BME280;13176;51.140;6.290;2023-02-05T01:49:20;102837.69;;;10.34;87.25
25232;BME280;13176;51.140;6.290;2023-02-05T01:51:48;102897.47;;;10.62;87.57
25232;BME280;13176;51.140;6.290;2023-02-05T01:54:16;102895.19;;;10.77;87.43
25232;BME280;13176;51.140;6.290;2023-02-05T01:56:50;102881.94;;;10.68;87.99
25232;BME280;13176;51.140;6.290;2023-02-05T01:59:21;102855.75;;;10.65;87.62
25232;BME280;13176;51.140;6.290;2023-02-05T02:01:49;102773.97;;;10.23;87.46
25232;BME280;13176;51.140;6.290;2023-02-05T02:04:25;102856.03;;;10.77;87.30
25232;BME280;13176;51.140;6.290;2023-02-05T02:06:55;102882.06;;;10.74;88.31
25232;BME280;13176;51.140;6.290;2023-02-05T02:09:22;102866.22;;;10.65;88.35
25232;BME280;13176;51.140;6.290;2023-02-05T02:11:48;102767.47;;;10.05;88.93
25232;BME280;13176;51.140;6.290;2023-02-05T02:14:15;102870.66;;;10.69;88.62
25232;BME280;13176;51.140;6.290;2023-02-05T02:16:41;102884.81;;;10.80;89.13
25232;BME280;13176;51.140;6.290;2023-02-05T02:19:17;102877.88;;;10.82;88.92
25232;BME280;13176;51.140;6.290;2023-02-05T02:24:53;102911.47;;;11.06;88.94
25232;BME280;13176;51.140;6.290;2023-02-05T02:27:39;102917.56;;;11.06;88.96
25232;BME280;13176;51.140;6.290;2023-02-05T02:33:16;102914.88;;;11.03;90.24
25232;BME280;13176;51.140;6.290;2023-02-05T02:39:14;102889.34;;;10.89;90.50
25232;BME280;13176;51.140;6.290;2023-02-05T02:41:45;102898.47;;;11.09;90.16
25232;BME280;13176;51.140;6.290;2023-02-05T02:44:23;102905.41;;;11.08;90.71
25232;BME280;13176;51.140;6.290;2023-02-05T02:46:53;102845.44;;;10.71;90.65
25232;BME280;13176;51.140;6.290;2023-02-05T02:49:25;102866.59;;;10.83;90.67
25232;BME280;13176;51.140;6.290;2023-02-05T02:51:54;102886.00;;;10.97;90.54
25232;BME280;13176;51.140;6.290;2023-02-05T02:54:24;102914.41;;;11.22;90.79
25232;BME280;13176;51.140;6.290;2023-02-05T02:56:51;102880.84;;;11.00;91.47
25232;BME280;13176;51.140;6.290;2023-02-05T02:59:22;102892.59;;;11.22;90.63
25232;BME280;13176;51.140;6.290;2023-02-05T03:02:01;102835.31;;;10.86;90.74
25232;BME280;13176;51.140;6.290;2023-02-05T03:04:33;102865.88;;;10.92;92.36
25232;BME280;13176;51.140;6.290;2023-02-05T03:09:59;102803.03;;;10.83;91.33
25232;BME280;13176;51.140;6.290;2023-02-05T03:12:27;102826.72;;;10.93;91.49
25232;BME280;13176;51.140;6.290;2023-02-05T03:14:54;102854.56;;;10.91;91.54
25232;BME280;13176;51.140;6.290;2023-02-05T03:17:22;102758.13;;;10.57;91.78
25232;BME280;13176;51.140;6.290;2023-02-05T03:19:57;102804.13;;;10.95;91.15
25232;BME280;13176;51.140;6.290;2023-02-05T03:22:26;102774.22;;;10.78;90.62
25232;BME280;13176;51.140;6.290;2023-02-05T03:24:52;102751.22;;;10.59;90.87
25232;BME280;13176;51.140;6.290;2023-02-05T03:27:20;102733.56;;;10.46;90.80
25232;BME280;13176;51.140;6.290;2023-02-05T03:29:48;102825.31;;;11.10;90.68
25232;BME280;13176;51.140;6.290;2023-02-05T03:35:14;102806.72;;;10.94;91.17
25232;BME280;13176;51.140;6.290;2023-02-05T03:40:42;102857.59;;;11.12;92.36
25232;BME280;13176;51.140;6.290;2023-02-05T03:43:15;102849.03;;;11.21;92.34
25232;BME280;13176;51.140;6.290;2023-02-05T03:48:54;102845.13;;;10.98;93.54
25232;BME280;13176;51.140;6.290;2023-02-05T03:51:41;102775.81;;;10.70;92.50
25232;BME280;13176;51.140;6.290;2023-02-05T03:54:19;102833.16;;;11.09;92.03
25232;BME280;13176;51.140;6.290;2023-02-05T03:57:03;102816.19;;;10.87;92.51
25232;BME280;13176;51.140;6.290;2023-02-05T03:59:32;102838.09;;;10.95;91.94
25232;BME280;13176;51.140;6.290;2023-02-05T04:01:59;102869.06;;;11.20;92.02
25232;BME280;13176;51.140;6.290;2023-02-05T04:04:26;102857.28;;;10.97;92.57
25232;BME280;13176;51.140;6.290;2023-02-05T04:06:52;102850.34;;;10.98;92.28
25232;BME280;13176;51.140;6.290;2023-02-05T04:09:19;102875.69;;;11.03;92.26
25232;BME280;13176;51.140;6.290;2023-02-05T04:11:45;102891.38;;;11.03;92.91
25232;BME280;13176;51.140;6.290;2023-02-05T04:14:12;102860.53;;;10.84;92.84
25232;BME280;13176;51.140;6.290;2023-02-05T04:16:38;102847.41;;;10.81;92.24
25232;BME280;13176;51.140;6.290;2023-02-05T04:19:05;102825.41;;;10.69;92.89
25232;BME280;13176;51.140;6.290;2023-02-05T04:21:31;102823.69;;;10.71;92.20
25232;BME280;13176;51.140;6.290;2023-02-05T04:23:57;102865.81;;;10.89;92.82
25232;BME280;13176;51.140;6.290;2023-02-05T04:26:24;102878.19;;;10.97;92.82
25232;BME280;13176;51.140;6.290;2023-02-05T04:28:50;102878.94;;;10.90;93.00
25232;BME280;13176;51.140;6.290;2023-02-05T04:31:16;102763.81;;;9.99;95.54
25232;BME280;13176;51.140;6.290;2023-02-05T04:33:43;102810.66;;;10.31;95.19
25232;BME280;13176;51.140;6.290;2023-02-05T04:36:10;102870.72;;;10.72;95.22
25232;BME280;13176;51.140;6.290;2023-02-05T04:38:36;102825.91;;;10.51;95.08
25232;BME280;13176;51.140;6.290;2023-02-05T04:41:03;102879.78;;;10.89;94.98
25232;BME280;13176;51.140;6.290;2023-02-05T04:43:30;102741.75;;;10.21;93.79
25232;BME280;13176;51.140;6.290;2023-02-05T04:45:56;102845.56;;;10.77;93.95
25232;BME280;13176;51.140;6.290;2023-02-05T04:48:22;102824.44;;;10.65;94.20
25232;BME280;13176;51.140;6.290;2023-02-05T04:50:49;102806.16;;;10.65;93.18
25232;BME280;13176;51.140;6.290;2023-02-05T04:53:15;102764.75;;;10.40;92.86
25232;BME280;13176;51.140;6.290;2023-02-05T04:55:42;102852.69;;;10.84;93.43
25232;BME280;13176;51.140;6.290;2023-02-05T04:58:08;102835.72;;;10.64;93.43
25232;BME280;13176;51.140;6.290;2023-02-05T05:00:34;102825.97;;;10.54;93.81
25232;BME280;13176;51.140;6.290;2023-02-05T05:03:01;102854.19;;;10.73;93.82
25232;BME280;13176;51.140;6.290;2023-02-05T05:05:27;102840.09;;;10.65;92.95
25232;BME280;13176;51.140;6.290;2023-02-05T05:07:54;102836.63;;;10.66;92.92
25232;BME280;13176;51.140;6.290;2023-02-05T05:10:20;102811.81;;;10.45;93.56
25232;BME280;13176;51.140;6.290;2023-02-05T05:12:46;102859.47;;;10.76;93.25
25232;BME280;13176;51.140;6.290;2023-02-05T05:15:13;102841.66;;;10.57;93.69
25232;BME280;13176;51.140;6.290;2023-02-05T05:17:39;102813.53;;;10.43;93.82
25232;BME280;13176;51.140;6.290;2023-02-05T05:20:06;102791.50;;;10.30;93.31
25232;BME280;13176;51.140;6.290;2023-02-05T05:22:32;102677.13;;;9.69;92.89
25232;BME280;13176;51.140;6.290;2023-02-05T05:24:59;102825.00;;;10.51;93.83
25232;BME280;13176;51.140;6.290;2023-02-05T05:27:25;102766.81;;;10.14;93.38
25232;BME280;13176;51.140;6.290;2023-02-05T05:29:51;102855.53;;;10.53;93.71
25232;BME280;13176;51.140;6.290;2023-02-05T05:32:18;102803.00;;;10.38;93.57
25232;BME280;13176;51.140;6.290;2023-02-05T05:34:44;102809.84;;;10.33;93.77
25232;BME280;13176;51.140;6.290;2023-02-05T05:37:11;102788.84;;;10.27;93.43
25232;BME280;13176;51.140;6.290;2023-02-05T05:39:37;102829.38;;;10.50;92.94
25232;BME280;13176;51.140;6.290;2023-02-05T05:42:22;102851.44;;;10.66;92.65
25232;BME280;13176;51.140;6.290;2023-02-05T05:45:07;102852.00;;;10.51;92.54
25232;BME280;13176;51.140;6.290;2023-02-05T05:47:33;102833.91;;;10.20;93.23
25232;BME280;13176;51.140;6.290;2023-02-05T05:50:00;102866.13;;;10.62;92.37
25232;BME280;13176;51.140;6.290;2023-02-05T05:52:26;102829.88;;;10.34;92.39
25232;BME280;13176;51.140;6.290;2023-02-05T05:54:52;102806.38;;;10.33;91.75
25232;BME280;13176;51.140;6.290;2023-02-05T05:57:19;102828.47;;;10.50;90.79
25232;BME280;13176;51.140;6.290;2023-02-05T05:59:46;102843.31;;;10.52;91.73
25232;BME280;13176;51.140;6.290;2023-02-05T06:02:12;102840.78;;;10.55;91.18
25232;BME280;13176;51.140;6.290;2023-02-05T06:04:39;102819.56;;;10.40;91.30
25232;BME280;13176;51.140;6.290;2023-02-05T06:07:05;102823.88;;;10.38;91.81
25232;BME280;13176;51.140;6.290;2023-02-05T06:09:32;102828.03;;;10.30;91.82
25232;BME280;13176;51.140;6.290;2023-02-05T06:11:58;102823.19;;;9.73;94.22
25232;BME280;13176;51.140;6.290;2023-02-05T06:14:24;102830.50;;;10.24;92.04
25232;BME280;13176;51.140;6.290;2023-02-05T06:16:51;102769.75;;;9.92;91.56
25232;BME280;13176;51.140;6.290;2023-02-05T06:19:21;102841.16;;;10.33;91.59
25232;BME280;13176;51.140;6.290;2023-02-05T06:21:47;102810.69;;;9.96;92.85
25232;BME280;13176;51.140;6.290;2023-02-05T06:24:14;102835.56;;;10.16;92.94
25232;BME280;13176;51.140;6.290;2023-02-05T06:26:41;102737.84;;;9.65;92.97
25232;BME280;13176;51.140;6.290;2023-02-05T06:29:08;102802.34;;;10.09;92.20
25232;BME280;13176;51.140;6.290;2023-02-05T06:31:34;102843.69;;;10.30;91.92
25232;BME280;13176;51.140;6.290;2023-02-05T06:34:00;102842.53;;;10.17;92.62
25232;BME280;13176;51.140;6.290;2023-02-05T06:36:27;102781.56;;;10.12;91.53
25232;BME280;13176;51.140;6.290;2023-02-05T06:38:53;102804.69;;;10.36;90.84
25232;BME280;13176;51.140;6.290;2023-02-05T06:41:20;102846.84;;;10.54;90.80
25232;BME280;13176;51.140;6.290;2023-02-05T06:43:46;102827.56;;;10.48;91.21
25232;BME280;13176;51.140;6.290;2023-02-05T06:46:12;102773.94;;;10.22;90.87
25232;BME280;13176;51.140;6.290;2023-02-05T06:48:39;102818.66;;;10.38;91.43
25232;BME280;13176;51.140;6.290;2023-02-05T06:51:05;102780.84;;;10.19;91.83
25232;BME280;13176;51.140;6.290;2023-02-05T06:53:32;102816.38;;;10.14;93.16
25232;BME280;13176;51.140;6.290;2023-02-05T06:55:58;102808.84;;;10.28;92.11
25232;BME280;13176;51.140;6.290;2023-02-05T06:58:24;102814.63;;;10.13;93.46
25232;BME280;13176;51.140;6.290;2023-02-05T07:00:51;102708.28;;;9.63;92.90
25232;BME280;13176;51.140;6.290;2023-02-05T07:03:17;102798.75;;;10.04;93.42
25232;BME280;13176;51.140;6.290;2023-02-05T07:05:44;102819.00;;;10.15;93.38
25232;BME280;13176;51.140;6.290;2023-02-05T07:08:10;102738.94;;;9.74;93.66
25232;BME280;13176;51.140;6.290;2023-02-05T07:10:36;102770.28;;;9.76;94.43
25232;BME280;13176;51.140;6.290;2023-02-05T07:13:03;102804.63;;;9.60;96.21
25232;BME280;13176;51.140;6.290;2023-02-05T07:15:31;102826.75;;;10.11;94.99
25232;BME280;13176;51.140;6.290;2023-02-05T07:17:58;102759.47;;;9.61;95.89
25232;BME280;13176;51.140;6.290;2023-02-05T07:20:24;102806.06;;;9.83;95.50
25232;BME280;13176;51.140;6.290;2023-02-05T07:22:50;102763.22;;;9.72;94.95
25232;BME280;13176;51.140;6.290;2023-02-05T07:25:17;102803.97;;;10.04;94.84
25232;BME280;13176;51.140;6.290;2023-02-05T07:27:43;102817.38;;;10.20;93.82
25232;BME280;13176;51.140;6.290;2023-02-05T07:30:10;102807.78;;;10.18;94.20
25232;BME280;13176;51.140;6.290;2023-02-05T07:32:37;102833.25;;;9.94;96.07
25232;BME280;13176;51.140;6.290;2023-02-05T07:35:03;102835.56;;;10.16;94.98
25232;BME280;13176;51.140;6.290;2023-02-05T07:37:30;102726.03;;;9.42;95.21
25232;BME280;13176;51.140;6.290;2023-02-05T07:39:56;102848.84;;;10.27;94.76
25232;BME280;13176;51.140;6.290;2023-02-05T07:42:23;102829.16;;;10.03;95.13
25232;BME280;13176;51.140;6.290;2023-02-05T07:44:49;102820.41;;;9.66;96.63
25232;BME280;13176;51.140;6.290;2023-02-05T07:47:15;102859.50;;;9.64;97.94
25232;BME280;13176;51.140;6.290;2023-02-05T07:49:42;102802.16;;;9.66;96.74
25232;BME280;13176;51.140;6.290;2023-02-05T07:52:08;102822.72;;;9.54;98.01
25232;BME280;13176;51.140;6.290;2023-02-05T07:54:35;102725.31;;;9.13;96.87
25232;BME280;13176;51.140;6.290;2023-02-05T07:57:03;102871.38;;;9.89;96.92
25232;BME280;13176;51.140;6.290;2023-02-05T07:59:32;102822.47;;;9.79;96.09
25232;BME280;13176;51.140;6.290;2023-02-05T08:01:58;102772.53;;;9.25;96.21
25232;BME280;13176;51.140;6.290;2023-02-05T08:04:25;102863.97;;;9.70;96.64
25232;BME280;13176;51.140;6.290;2023-02-05T08:06:51;102832.38;;;9.58;96.01
25232;BME280;13176;51.140;6.290;2023-02-05T08:09:17;102917.72;;;9.66;96.32
25232;BME280;13176;51.140;6.290;2023-02-05T08:11:44;102836.03;;;8.98;96.94
25232;BME280;13176;51.140;6.290;2023-02-05T08:14:10;102881.78;;;9.21;95.79
25232;BME280;13176;51.140;6.290;2023-02-05T08:16:37;102910.44;;;9.21;96.10
25232;BME280;13176;51.140;6.290;2023-02-05T08:19:03;102889.41;;;9.15;95.60
25232;BME280;13176;51.140;6.290;2023-02-05T08:21:29;102923.44;;;9.21;95.83
25232;BME280;13176;51.140;6.290;2023-02-05T08:23:56;102867.66;;;8.82;94.72
25232;BME280;13176;51.140;6.290;2023-02-05T08:26:23;102869.28;;;9.08;93.12
25232;BME280;13176;51.140;6.290;2023-02-05T08:28:50;102824.66;;;8.34;93.29
25232;BME280;13176;51.140;6.290;2023-02-05T08:31:17;102930.59;;;9.28;92.23
25232;BME280;13176;51.140;6.290;2023-02-05T08:33:44;102807.69;;;8.48;92.17
25232;BME280;13176;51.140;6.290;2023-02-05T08:36:12;102842.16;;;8.69;91.52
25232;BME280;13176;51.140;6.290;2023-02-05T08:38:39;102882.53;;;8.86;91.71
25232;BME280;13176;51.140;6.290;2023-02-05T08:41:07;102850.66;;;8.95;90.35
25232;BME280;13176;51.140;6.290;2023-02-05T08:43:45;102941.81;;;9.25;91.25
25232;BME280;13176;51.140;6.290;2023-02-05T08:46:15;102922.28;;;9.10;90.05
25232;BME280;13176;51.140;6.290;2023-02-05T08:48:42;102938.81;;;9.12;89.98
25232;BME280;13176;51.140;6.290;2023-02-05T08:51:10;102789.63;;;8.53;89.00
25232;BME280;13176;51.140;6.290;2023-02-05T08:53:37;102817.75;;;8.66;88.31
25232;BME280;13176;51.140;6.290;2023-02-05T08:56:04;102951.97;;;9.46;88.25
25232;BME280;13176;51.140;6.290;2023-02-05T08:58:31;102956.78;;;9.63;87.84
25232;BME280;13176;51.140;6.290;2023-02-05T09:01:03;102922.75;;;9.26;88.22
25232;BME280;13176;51.140;6.290;2023-02-05T09:03:30;102963.19;;;9.76;87.58
25232;BME280;13176;51.140;6.290;2023-02-05T09:05:58;102853.44;;;8.70;88.15
25232;BME280;13176;51.140;6.290;2023-02-05T09:08:26;102963.28;;;9.48;88.81
25232;BME280;13176;51.140;6.290;2023-02-05T09:10:54;102940.16;;;9.27;88.41
25232;BME280;13176;51.140;6.290;2023-02-05T09:13:20;102937.00;;;9.40;88.49
25232;BME280;13176;51.140;6.290;2023-02-05T09:15:47;102926.03;;;9.19;88.70
25232;BME280;13176;51.140;6.290;2023-02-05T09:18:14;102943.75;;;9.32;88.90
25232;BME280;13176;51.140;6.290;2023-02-05T09:20:42;102966.13;;;9.26;89.97
25232;BME280;13176;51.140;6.290;2023-02-05T09:23:10;102968.03;;;9.62;88.95
25232;BME280;13176;51.140;6.290;2023-02-05T09:25:38;102962.50;;;9.52;88.98
25232;BME280;13176;51.140;6.290;2023-02-05T09:28:07;102946.56;;;9.40;89.35
25232;BME280;13176;51.140;6.290;2023-02-05T09:30:36;102859.16;;;8.88;88.87
25232;BME280;13176;51.140;6.290;2023-02-05T09:33:02;102896.91;;;9.03;88.95
25232;BME280;13176;51.140;6.290;2023-02-05T09:35:33;102951.06;;;9.14;90.96
25232;BME280;13176;51.140;6.290;2023-02-05T09:38:00;102952.00;;;9.18;90.21
25232;BME280;13176;51.140;6.290;2023-02-05T09:40:33;102981.38;;;9.42;90.28
25232;BME280;13176;51.140;6.290;2023-02-05T09:43:20;102892.63;;;9.05;89.68
25232;BME280;13176;51.140;6.290;2023-02-05T09:48:34;102979.91;;;9.53;90.77
25232;BME280;13176;51.140;6.290;2023-02-05T09:51:09;102995.75;;;9.29;90.55
25232;BME280;13176;51.140;6.290;2023-02-05T09:53:41;102891.34;;;8.91;89.87
25232;BME280;13176;51.140;6.290;2023-02-05T09:56:09;102808.03;;;8.29;90.10
25232;BME280;13176;51.140;6.290;2023-02-05T09:58:42;102917.28;;;8.88;90.62
25232;BME280;13176;51.140;6.290;2023-02-05T10:01:23;102996.53;;;9.56;90.44
25232;BME280;13176;51.140;6.290;2023-02-05T10:04:02;102884.38;;;8.90;90.81
25232;BME280;13176;51.140;6.290;2023-02-05T10:06:39;102981.50;;;9.17;91.91
25232;BME280;13176;51.140;6.290;2023-02-05T10:09:43;103008.84;;;9.31;92.45
25232;BME280;13176;51.140;6.290;2023-02-05T10:12:25;102989.44;;;8.92;94.30
25232;BME280;13176;51.140;6.290;2023-02-05T10:15:06;103015.16;;;9.39;92.52
25232;BME280;13176;51.140;6.290;2023-02-05T10:23:17;103012.88;;;9.51;91.96
25232;BME280;13176;51.140;6.290;2023-02-05T10:26:14;103004.22;;;9.52;91.11
25232;BME280;13176;51.140;6.290;2023-02-05T10:31:41;102997.66;;;9.66;89.93
25232;BME280;13176;51.140;6.290;2023-02-05T10:37:07;102954.03;;;9.59;89.20
25232;BME280;13176;51.140;6.290;2023-02-05T10:39:37;102871.34;;;9.21;88.56
25232;BME280;13176;51.140;6.290;2023-02-05T10:44:43;102988.72;;;9.56;87.95
25232;BME280;13176;51.140;6.290;2023-02-05T10:47:22;102894.84;;;9.22;87.09
25232;BME280;13176;51.140;6.290;2023-02-05T10:50:06;102981.00;;;9.59;88.05
25232;BME280;13176;51.140;6.290;2023-02-05T10:52:39;102962.94;;;9.67;87.14
25232;BME280;13176;51.140;6.290;2023-02-05T10:55:12;102955.00;;;9.62;87.20
25232;BME280;13176;51.140;6.290;2023-02-05T10:57:39;102960.66;;;9.48;88.60
25232;BME280;13176;51.140;6.290;2023-02-05T11:00:20;102964.81;;;9.72;87.47
25232;BME280;13176;51.140;6.290;2023-02-05T11:02:50;102974.72;;;9.53;88.10
25232;BME280;13176;51.140;6.290;2023-02-05T11:07:55;102925.81;;;9.43;87.42
25232;BME280;13176;51.140;6.290;2023-02-05T11:12:54;102975.47;;;9.80;85.88
25232;BME280;13176;51.140;6.290;2023-02-05T11:15:27;102904.88;;;9.40;85.42
25232;BME280;13176;51.140;6.290;2023-02-05T11:17:59;102967.97;;;9.61;86.05
25232;BME280;13176;51.140;6.290;2023-02-05T11:20:29;102846.78;;;9.10;85.72
25232;BME280;13176;51.140;6.290;2023-02-05T11:23:19;102989.47;;;9.85;85.46
25232;BME280;13176;51.140;6.290;2023-02-05T11:25:58;102977.16;;;9.78;84.63
25232;BME280;13176;51.140;6.290;2023-02-05T11:28:29;102967.06;;;9.59;84.44
25232;BME280;13176;51.140;6.290;2023-02-05T11:30:57;102926.75;;;9.45;83.86
25232;BME280;13176;51.140;6.290;2023-02-05T11:33:43;102980.09;;;9.59;84.39
25232;BME280;13176;51.140;6.290;2023-02-05T11:36:36;102979.63;;;10.06;83.19
25232;BME280;13176;51.140;6.290;2023-02-05T11:39:05;102966.50;;;9.70;82.48
25232;BME280;13176;51.140;6.290;2023-02-05T11:41:32;102990.38;;;9.85;81.64
25232;BME280;13176;51.140;6.290;2023-02-05T11:44:24;102986.53;;;10.04;82.34
25232;BME280;13176;51.140;6.290;2023-02-05T11:46:52;102963.34;;;9.82;81.37
25232;BME280;13176;51.140;6.290;2023-02-05T11:49:30;102947.41;;;9.71;80.89
25232;BME280;13176;51.140;6.290;2023-02-05T11:51:58;102955.13;;;9.68;80.90
25232;BME280;13176;51.140;6.290;2023-02-05T11:54:30;102982.25;;;10.06;80.23
25232;BME280;13176;51.140;6.290;2023-02-05T11:57:05;102938.78;;;9.74;79.56
25232;BME280;13176;51.140;6.290;2023-02-05T11:59:33;102948.72;;;9.88;78.64
25232;BME280;13176;51.140;6.290;2023-02-05T12:05:06;102957.56;;;9.93;77.59
25232;BME280;13176;51.140;6.290;2023-02-05T12:13:17;102983.47;;;10.20;75.08
25232;BME280;13176;51.140;6.290;2023-02-05T12:24:17;102985.91;;;10.47;76.93
25232;BME280;13176;51.140;6.290;2023-02-05T12:26:48;102953.56;;;10.06;77.94
25232;BME280;13176;51.140;6.290;2023-02-05T12:32:42;102976.94;;;10.01;76.96
25232;BME280;13176;51.140;6.290;2023-02-05T12:35:28;102954.53;;;9.77;78.45
25232;BME280;13176;51.140;6.290;2023-02-05T12:38:11;103004.34;;;10.20;77.66
25232;BME280;13176;51.140;6.290;2023-02-05T12:43:36;102965.41;;;10.28;76.84
25232;BME280;13176;51.140;6.290;2023-02-05T12:49:41;103000.88;;;10.56;77.36
25232;BME280;13176;51.140;6.290;2023-02-05T12:55:22;102991.75;;;10.37;76.95
25232;BME280;13176;51.140;6.290;2023-02-05T12:57:56;102969.72;;;10.26;77.19
25232;BME280;13176;51.140;6.290;2023-02-05T13:00:32;102981.28;;;10.36;78.18
25232;BME280;13176;51.140;6.290;2023-02-05T13:05:52;102972.31;;;9.93;78.34
25232;BME280;13176;51.140;6.290;2023-02-05T13:10:56;102942.84;;;10.30;75.87
25232;BME280;13176;51.140;6.290;2023-02-05T13:13:29;102933.09;;;10.23;75.92
25232;BME280;13176;51.140;6.290;2023-02-05T13:16:01;102966.63;;;10.42;75.18
25232;BME280;13176;51.140;6.290;2023-02-05T13:18:33;102974.72;;;10.53;74.27
25232;BME280;13176;51.140;6.290;2023-02-05T13:21:07;102972.84;;;10.47;74.12
25232;BME280;13176;51.140;6.290;2023-02-05T13:24:01;102963.81;;;10.33;73.80
25232;BME280;13176;51.140;6.290;2023-02-05T13:26:48;102880.38;;;10.00;73.88
25232;BME280;13176;51.140;6.290;2023-02-05T13:29:42;102964.94;;;10.44;74.24
25232;BME280;13176;51.140;6.290;2023-02-05T13:32:13;103002.34;;;10.80;73.37
25232;BME280;13176;51.140;6.290;2023-02-05T13:34:42;102873.09;;;10.23;72.75
25232;BME280;13176;51.140;6.290;2023-02-05T13:37:38;102993.66;;;10.81;73.25
25232;BME280;13176;51.140;6.290;2023-02-05T13:43:00;103021.59;;;10.85;73.01
25232;BME280;13176;51.140;6.290;2023-02-05T13:46:01;103005.09;;;10.88;72.77
25232;BME280;13176;51.140;6.290;2023-02-05T13:51:45;102973.47;;;10.76;73.93
25232;BME280;13176;51.140;6.290;2023-02-05T14:00:11;103024.91;;;10.78;73.88
25232;BME280;13176;51.140;6.290;2023-02-05T14:02:42;103005.94;;;10.85;73.45
25232;BME280;13176;51.140;6.290;2023-02-05T14:05:10;103011.53;;;11.03;73.60
25232;BME280;13176;51.140;6.290;2023-02-05T14:07:49;103012.44;;;11.05;74.20
25232;BME280;13176;51.140;6.290;2023-02-05T14:10:35;103042.75;;;10.97;74.94
25232;BME280;13176;51.140;6.290;2023-02-05T14:15:51;103026.59;;;10.76;76.95
25232;BME280;13176;51.140;6.290;2023-02-05T14:23:56;103064.91;;;10.42;82.89
25232;BME280;13176;51.140;6.290;2023-02-05T14:26:51;103074.06;;;9.94;84.45
25232;BME280;13176;51.140;6.290;2023-02-05T14:29:43;103080.53;;;10.08;84.38
25232;BME280;13176;51.140;6.290;2023-02-05T14:32:12;103036.38;;;9.83;83.92
25232;BME280;13176;51.140;6.290;2023-02-05T14:37:22;103069.09;;;10.35;83.89
25232;BME280;13176;51.140;6.290;2023-02-05T14:39:50;103044.34;;;10.54;83.00
25232;BME280;13176;51.140;6.290;2023-02-05T14:42:20;103036.25;;;10.43;82.19
25232;BME280;13176;51.140;6.290;2023-02-05T14:44:56;103067.44;;;10.73;81.38
25232;BME280;13176;51.140;6.290;2023-02-05T14:47:28;103005.34;;;10.61;80.58
25232;BME280;13176;51.140;6.290;2023-02-05T14:50:10;103093.53;;;11.08;80.70